Time;durP1;ratioP1;P1;durP2;ratioP2;P2;SDS_P1;SDS_P2;PMS_P1;PMS_P2;Temp;Humidity;BMP_temperature;BMP_pressure;BME280_temperature;BME280_humidity;BME280_pressure;Samples;Min_cycle;Max_cycle;Signal;HPM_P1;HPM_P2
2023/09/26 00:00:27;;;;;;;5.07;3.23;;;9.10;99.90;;;;;;2065251;28;20233;-83
2023/09/26 00:01:29;;;;;;;4.20;3.80;;;9.10;99.90;;;;;;2073286;28;20233;-82
2023/09/26 00:02:30;;;;;;;5.13;3.50;;;9.00;99.90;;;;;;2081367;28;20259;-83
2023/09/26 00:03:31;;;;;;;6.70;3.90;;;9.00;99.90;;;;;;2073709;28;20716;-83
2023/09/26 00:04:32;;;;;;;5.00;4.33;;;9.00;99.90;;;;;;2065997;28;20233;-83
2023/09/26 00:05:32;;;;;;;4.00;3.50;;;8.90;99.90;;;;;;2073919;28;20314;-83
2023/09/26 00:06:33;;;;;;;4.30;3.90;;;8.80;99.90;;;;;;2074489;28;20247;-83
2023/09/26 00:07:33;;;;;;;5.33;4.40;;;8.90;99.90;;;;;;2073385;28;20241;-83
2023/09/26 00:08:34;;;;;;;4.13;3.00;;;8.90;99.90;;;;;;2074198;28;20238;-83
2023/09/26 00:09:35;;;;;;;4.53;4.13;;;8.90;99.90;;;;;;2074915;28;20234;-82
2023/09/26 00:10:36;;;;;;;5.85;4.30;;;9.00;99.90;;;;;;2083121;28;20388;-83
2023/09/26 00:11:37;;;;;;;4.43;3.47;;;8.90;99.90;;;;;;2075192;28;20240;-83
2023/09/26 00:12:39;;;;;;;3.85;3.35;;;9.00;99.90;;;;;;2074110;28;20252;-83
2023/09/26 00:13:40;;;;;;;3.95;3.60;;;9.00;99.90;;;;;;2073999;28;20233;-84
2023/09/26 00:14:41;;;;;;;5.97;3.73;;;9.00;99.90;;;;;;2074562;28;20267;-83
2023/09/26 00:15:42;;;;;;;4.57;3.63;;;9.00;99.90;;;;;;2073813;28;20232;-83
2023/09/26 00:16:42;;;;;;;5.65;3.60;;;9.00;99.90;;;;;;2075017;28;20601;-83
2023/09/26 00:17:43;;;;;;;4.37;3.60;;;8.90;99.90;;;;;;2075179;28;20272;-83
2023/09/26 00:18:44;;;;;;;4.63;3.70;;;9.00;99.90;;;;;;2074925;28;20243;-83
2023/09/26 00:19:44;;;;;;;4.17;3.60;;;9.00;99.90;;;;;;2074373;28;20232;-82
2023/09/26 00:20:45;;;;;;;4.43;3.50;;;9.00;99.90;;;;;;2067102;28;20247;-84
2023/09/26 00:21:47;;;;;;;5.63;3.70;;;8.90;99.90;;;;;;2066472;28;20261;-83
2023/09/26 00:22:47;;;;;;;3.88;3.47;;;8.90;99.90;;;;;;2075231;28;20234;-83
2023/09/26 00:23:48;;;;;;;3.30;3.00;;;8.90;99.90;;;;;;2080145;28;20224;-81
2023/09/26 00:24:48;;;;;;;3.87;3.33;;;9.00;99.90;;;;;;2082279;28;20257;-82
2023/09/26 00:25:49;;;;;;;3.60;3.30;;;8.90;99.90;;;;;;2078874;28;20250;-82
2023/09/26 00:26:50;;;;;;;3.57;3.10;;;8.90;99.90;;;;;;2072342;28;20944;-82
2023/09/26 00:27:50;;;;;;;3.50;3.00;;;8.80;99.90;;;;;;2072498;28;20297;-82
2023/09/26 00:28:52;;;;;;;4.33;3.50;;;8.80;99.90;;;;;;2072318;28;20303;-82
2023/09/26 00:29:52;;;;;;;3.97;3.45;;;8.90;99.90;;;;;;2064249;28;20230;-82
2023/09/26 00:30:56;;;;;;;3.90;3.33;;;8.90;99.90;;;;;;2072531;28;20265;-82
2023/09/26 00:31:56;;;;;;;3.65;3.35;;;8.90;99.90;;;;;;2072006;28;20239;-82
2023/09/26 00:32:57;;;;;;;3.80;3.40;;;8.90;99.90;;;;;;2064467;28;20315;-83
2023/09/26 00:33:57;;;;;;;3.90;3.50;;;8.80;99.90;;;;;;2071890;28;20613;-83
2023/09/26 00:34:58;;;;;;;4.00;3.60;;;8.90;99.90;;;;;;2072322;28;20318;-82
2023/09/26 00:36:07;;;;;;;3.90;3.13;;;8.80;99.90;;;;;;2064592;28;20269;-83
2023/09/26 00:37:08;;;;;;;3.70;3.40;;;8.80;99.90;;;;;;2072599;28;20265;-83
2023/09/26 00:38:08;;;;;;;4.40;4.00;;;8.80;99.90;;;;;;2072610;28;20243;-83
2023/09/26 00:39:09;;;;;;;4.10;3.70;;;8.80;99.90;;;;;;2072740;28;20232;-83
2023/09/26 00:40:12;;;;;;;4.38;3.40;;;8.80;99.90;;;;;;2072697;28;20282;-82
2023/09/26 00:41:12;;;;;;;4.47;3.25;;;8.80;99.90;;;;;;2072719;28;20268;-82
2023/09/26 00:42:14;;;;;;;4.80;3.70;;;8.80;99.90;;;;;;2066790;28;20208;-83
2023/09/26 00:43:22;;;;;;;4.63;3.50;;;8.80;99.90;;;;;;2073253;28;20603;-82
2023/09/26 00:44:22;;;;;;;4.38;3.40;;;8.80;99.90;;;;;;2073138;28;20224;-83
2023/09/26 00:45:23;;;;;;;3.83;3.50;;;8.80;99.90;;;;;;2072956;28;20572;-82
2023/09/26 00:46:24;;;;;;;4.37;3.40;;;8.80;99.90;;;;;;2072700;28;20627;-83
2023/09/26 00:47:24;;;;;;;3.47;3.17;;;8.70;99.90;;;;;;2074728;28;20225;-83
2023/09/26 00:48:25;;;;;;;3.73;3.13;;;8.70;99.90;;;;;;2073805;28;20240;-83
2023/09/26 00:49:29;;;;;;;3.50;3.20;;;8.70;99.90;;;;;;2073824;28;20229;-83
2023/09/26 00:50:31;;;;;;;3.83;3.08;;;8.70;99.90;;;;;;2072851;28;20713;-83
2023/09/26 00:51:32;;;;;;;5.57;3.33;;;8.70;99.90;;;;;;2064013;28;20801;-83
2023/09/26 00:52:34;;;;;;;3.50;3.13;;;8.70;99.90;;;;;;2073111;28;20230;-82
2023/09/26 00:53:38;;;;;;;3.15;2.85;;;8.70;99.90;;;;;;2081982;28;20228;-82
2023/09/26 00:54:39;;;;;;;4.75;3.17;;;8.70;99.90;;;;;;2073078;28;20236;-83
2023/09/26 00:55:39;;;;;;;3.63;3.00;;;8.70;99.90;;;;;;2070237;28;20233;-82
2023/09/26 00:56:41;;;;;;;3.97;3.30;;;8.60;99.90;;;;;;2080480;28;20258;-81
2023/09/26 00:57:42;;;;;;;3.25;2.97;;;8.60;99.90;;;;;;2079988;28;20233;-82
2023/09/26 00:58:43;;;;;;;4.00;3.00;;;8.60;99.90;;;;;;2071334;28;20250;-82
2023/09/26 00:59:44;;;;;;;3.22;2.92;;;8.50;99.90;;;;;;2069269;28;20483;-83
2023/09/26 01:00:45;;;;;;;3.90;3.10;;;8.60;99.90;;;;;;2076913;28;20234;-83
2023/09/26 01:01:49;;;;;;;3.55;3.25;;;8.60;99.90;;;;;;2076140;28;20240;-84
2023/09/26 01:02:49;;;;;;;4.10;2.80;;;8.50;99.90;;;;;;2066876;28;20229;-84
2023/09/26 01:03:50;;;;;;;4.37;2.97;;;8.50;99.90;;;;;;2066099;28;20318;-83
2023/09/26 01:04:51;;;;;;;3.57;3.27;;;8.50;99.90;;;;;;2075592;28;20230;-83
2023/09/26 01:05:52;;;;;;;3.53;3.00;;;8.40;99.90;;;;;;2077030;28;20308;-82
2023/09/26 01:06:52;;;;;;;3.80;3.23;;;8.40;99.90;;;;;;2076751;28;20264;-84
2023/09/26 01:07:53;;;;;;;3.87;2.93;;;8.40;99.90;;;;;;2068016;28;20583;-82
2023/09/26 01:08:54;;;;;;;3.23;2.93;;;8.40;99.90;;;;;;2067268;28;20234;-83
2023/09/26 01:09:55;;;;;;;3.40;3.10;;;8.40;99.90;;;;;;2075874;28;20242;-83
2023/09/26 01:10:58;;;;;;;4.63;3.40;;;8.40;99.90;;;;;;2075377;28;20221;-83
2023/09/26 01:11:59;;;;;;;4.95;3.78;;;8.50;99.90;;;;;;2075422;28;20822;-83
2023/09/26 01:13:00;;;;;;;3.75;3.35;;;8.30;99.90;;;;;;2067903;28;20473;-83
2023/09/26 01:14:01;;;;;;;4.60;4.10;;;8.10;99.90;;;;;;2076067;28;20399;-83
2023/09/26 01:15:01;;;;;;;4.80;4.10;;;8.10;99.90;;;;;;2075410;28;20468;-83
2023/09/26 01:16:16;;;;;;;4.37;3.97;;;8.00;99.90;;;;;;2076123;28;20227;-83
2023/09/26 01:17:17;;;;;;;4.35;3.95;;;8.10;99.90;;;;;;2074402;28;20220;-83
2023/09/26 01:18:23;;;;;;;4.47;3.70;;;8.10;99.90;;;;;;2075438;28;20537;-83
2023/09/26 01:19:23;;;;;;;4.85;3.60;;;8.20;99.90;;;;;;2075831;28;20264;-83
2023/09/26 01:20:25;;;;;;;5.17;3.73;;;8.30;99.90;;;;;;2076233;28;20244;-82
2023/09/26 01:21:26;;;;;;;5.65;4.65;;;8.30;99.90;;;;;;2079721;28;20235;-83
2023/09/26 01:22:27;;;;;;;4.80;4.38;;;8.40;99.90;;;;;;2080506;28;20233;-83
2023/09/26 01:23:28;;;;;;;4.63;4.22;;;8.40;99.90;;;;;;2077469;28;20255;-83
2023/09/26 01:24:29;;;;;;;4.20;3.65;;;8.50;99.90;;;;;;2076444;28;20221;-83
2023/09/26 01:25:30;;;;;;;5.53;4.00;;;8.40;99.90;;;;;;2076003;28;20233;-83
2023/09/26 01:26:36;;;;;;;5.35;4.00;;;8.50;99.90;;;;;;2072298;28;20246;-83
2023/09/26 01:27:36;;;;;;;5.60;4.90;;;8.50;99.90;;;;;;2075978;28;20237;-84
2023/09/26 01:28:37;;;;;;;5.37;4.87;;;8.60;99.90;;;;;;2076663;28;20242;-83
2023/09/26 01:29:38;;;;;;;5.60;5.10;;;8.50;99.90;;;;;;2075454;28;20242;-83
2023/09/26 01:30:39;;;;;;;6.03;4.80;;;8.40;99.90;;;;;;2075867;28;20240;-83
2023/09/26 01:31:39;;;;;;;4.85;4.30;;;8.50;99.90;;;;;;2077368;28;20239;-83
2023/09/26 01:32:40;;;;;;;7.53;4.60;;;8.50;99.90;;;;;;2076979;28;20233;-83
2023/09/26 01:33:41;;;;;;;6.20;4.97;;;8.50;99.90;;;;;;2069333;28;20558;-82
2023/09/26 01:34:42;;;;;;;7.38;4.47;;;8.50;99.90;;;;;;2069849;28;20236;-83
2023/09/26 01:35:43;;;;;;;4.70;4.20;;;8.60;99.90;;;;;;2075753;28;20244;-83
2023/09/26 01:36:44;;;;;;;5.65;4.65;;;8.60;99.90;;;;;;2068839;28;20237;-84
2023/09/26 01:37:44;;;;;;;5.57;4.60;;;8.60;99.90;;;;;;2076800;28;20627;-83
2023/09/26 01:38:45;;;;;;;5.13;4.63;;;8.60;99.90;;;;;;2076518;28;20238;-83
2023/09/26 01:39:45;;;;;;;8.33;4.50;;;8.60;99.90;;;;;;2077288;28;20250;-83
2023/09/26 01:40:46;;;;;;;4.47;4.07;;;8.60;99.90;;;;;;2077186;28;20301;-83
2023/09/26 01:41:47;;;;;;;4.47;4.07;;;8.60;99.90;;;;;;2074910;28;20257;-83
2023/09/26 01:42:47;;;;;;;4.33;3.90;;;8.60;99.90;;;;;;2076605;28;20252;-83
2023/09/26 01:43:48;;;;;;;4.13;3.37;;;8.60;99.90;;;;;;2076575;28;20265;-84
2023/09/26 01:44:49;;;;;;;3.90;3.50;;;8.60;99.90;;;;;;2076208;28;20738;-83
2023/09/26 01:45:50;;;;;;;4.20;3.57;;;8.60;99.90;;;;;;2076137;28;20491;-83
2023/09/26 01:46:51;;;;;;;3.97;3.35;;;8.60;99.90;;;;;;2075843;28;20230;-83
2023/09/26 01:47:52;;;;;;;3.70;3.40;;;8.60;99.90;;;;;;2068310;28;20238;-83
2023/09/26 01:48:53;;;;;;;4.10;3.70;;;8.60;99.90;;;;;;2067890;28;20274;-83
2023/09/26 01:49:53;;;;;;;4.27;3.50;;;8.60;99.90;;;;;;2076233;28;20238;-83
2023/09/26 01:50:54;;;;;;;4.10;3.70;;;8.50;99.90;;;;;;2075637;28;20261;-83
2023/09/26 01:51:54;;;;;;;4.13;3.60;;;8.60;99.90;;;;;;2075887;28;20328;-83
2023/09/26 01:52:55;;;;;;;4.63;4.07;;;8.50;99.90;;;;;;2075290;28;20241;-83
2023/09/26 01:53:55;;;;;;;4.40;4.00;;;8.50;99.90;;;;;;2076089;28;20251;-83
2023/09/26 01:54:56;;;;;;;4.30;3.90;;;8.50;99.90;;;;;;2075224;28;20241;-83
2023/09/26 01:56:00;;;;;;;6.33;4.03;;;8.50;99.90;;;;;;2075468;28;20710;-83
2023/09/26 01:57:00;;;;;;;4.10;3.70;;;8.50;99.90;;;;;;2076019;28;20229;-82
2023/09/26 01:58:01;;;;;;;5.27;4.07;;;8.50;99.90;;;;;;2076254;28;20233;-84
2023/09/26 01:59:01;;;;;;;4.43;4.00;;;8.50;99.90;;;;;;2076395;28;20227;-83
2023/09/26 02:00:11;;;;;;;4.50;3.80;;;8.50;99.90;;;;;;2076448;28;20249;-83
2023/09/26 02:01:12;;;;;;;4.00;3.60;;;8.50;99.90;;;;;;2074758;28;20300;-83
2023/09/26 02:02:12;;;;;;;4.57;4.07;;;8.50;99.90;;;;;;2074827;28;20735;-83
2023/09/26 02:03:13;;;;;;;6.60;3.77;;;8.50;99.90;;;;;;2074813;28;20186;-83
2023/09/26 02:04:13;;;;;;;5.40;4.17;;;8.50;99.90;;;;;;2075314;28;20271;-83
2023/09/26 02:05:16;;;;;;;4.53;3.87;;;8.50;99.90;;;;;;2070161;28;20202;-83
2023/09/26 02:06:17;;;;;;;4.53;4.13;;;8.40;99.90;;;;;;2057696;28;20255;-84
2023/09/26 02:07:18;;;;;;;3.67;3.30;;;8.40;99.90;;;;;;2076240;28;20186;-83
2023/09/26 02:08:18;;;;;;;4.27;3.87;;;8.40;99.90;;;;;;2075720;28;20182;-83
2023/09/26 02:09:19;;;;;;;4.00;3.20;;;8.40;99.90;;;;;;2075024;28;20182;-83
2023/09/26 02:10:20;;;;;;;4.73;3.70;;;8.40;99.90;;;;;;2075242;28;20261;-83
2023/09/26 02:11:20;;;;;;;4.37;3.50;;;8.50;99.90;;;;;;2075392;28;20192;-83
2023/09/26 02:12:21;;;;;;;4.53;2.97;;;8.40;99.90;;;;;;2075816;28;20186;-84
2023/09/26 02:13:22;;;;;;;3.75;3.38;;;8.40;99.90;;;;;;2075213;28;20582;-84
2023/09/26 02:14:22;;;;;;;3.60;3.30;;;8.40;99.90;;;;;;2064384;28;20241;-83
2023/09/26 02:15:23;;;;;;;4.23;3.30;;;8.30;99.90;;;;;;2072088;28;20599;-84
2023/09/26 02:16:24;;;;;;;7.03;3.63;;;8.40;99.90;;;;;;2072091;28;20279;-83
2023/09/26 02:17:24;;;;;;;4.33;3.80;;;8.40;99.90;;;;;;2064076;28;20346;-81
2023/09/26 02:18:25;;;;;;;3.77;3.40;;;8.40;99.90;;;;;;2072788;28;20222;-83
2023/09/26 02:19:26;;;;;;;5.03;3.43;;;8.40;99.90;;;;;;2072479;28;20941;-83
2023/09/26 02:20:27;;;;;;;3.30;2.97;;;8.30;99.90;;;;;;2072576;28;20254;-83
2023/09/26 02:21:28;;;;;;;4.43;3.03;;;8.30;99.90;;;;;;2064468;28;20245;-82
2023/09/26 02:22:28;;;;;;;3.17;2.83;;;8.20;99.90;;;;;;2066421;28;20233;-82
2023/09/26 02:23:29;;;;;;;3.43;2.83;;;8.20;99.90;;;;;;2065096;28;20238;-83
2023/09/26 02:24:31;;;;;;;3.83;3.10;;;8.30;99.90;;;;;;2065391;28;20824;-84
2023/09/26 02:25:32;;;;;;;3.30;3.00;;;8.20;99.90;;;;;;2069128;28;20312;-83
2023/09/26 02:26:33;;;;;;;4.28;3.53;;;8.30;99.90;;;;;;2073391;28;20580;-83
2023/09/26 02:27:33;;;;;;;3.67;3.37;;;8.20;99.90;;;;;;2065807;28;20295;-83
2023/09/26 02:28:34;;;;;;;4.23;3.70;;;8.30;99.90;;;;;;2073219;28;20245;-83
2023/09/26 02:29:35;;;;;;;4.03;3.60;;;8.20;99.90;;;;;;2070969;28;20232;-83
2023/09/26 02:30:35;;;;;;;4.23;3.73;;;8.30;99.90;;;;;;2073014;28;20233;-83
2023/09/26 02:31:36;;;;;;;7.17;3.83;;;8.10;99.90;;;;;;2071968;28;20264;-82
2023/09/26 02:32:37;;;;;;;5.27;4.50;;;8.10;99.90;;;;;;2067889;28;20221;-84
2023/09/26 02:33:38;;;;;;;5.47;4.25;;;8.10;99.90;;;;;;2074151;28;20565;-84
2023/09/26 02:34:38;;;;;;;4.43;4.03;;;8.10;99.90;;;;;;2074116;28;20259;-83
2023/09/26 02:35:39;;;;;;;6.27;4.67;;;8.10;99.90;;;;;;2074354;28;20293;-83
2023/09/26 02:36:40;;;;;;;4.70;3.90;;;8.10;99.90;;;;;;2074096;28;20732;-83
2023/09/26 02:37:40;;;;;;;5.50;4.03;;;8.30;99.90;;;;;;2074395;28;20320;-82
2023/09/26 02:38:41;;;;;;;6.03;4.00;;;8.20;99.90;;;;;;2074535;28;20237;-81
2023/09/26 02:39:41;;;;;;;5.50;4.93;;;8.30;99.90;;;;;;2073980;28;20676;-83
2023/09/26 02:40:42;;;;;;;5.30;4.80;;;8.30;99.90;;;;;;2073489;28;20240;-83
2023/09/26 02:41:43;;;;;;;5.28;4.78;;;8.30;99.90;;;;;;2074232;28;20241;-83
2023/09/26 02:42:44;;;;;;;6.70;5.10;;;8.30;99.90;;;;;;2073255;28;20709;-81
2023/09/26 02:43:45;;;;;;;5.13;4.73;;;8.30;99.90;;;;;;2074290;28;20284;-83
2023/09/26 02:44:45;;;;;;;6.63;5.00;;;8.40;99.90;;;;;;2074262;28;20698;-83
2023/09/26 02:45:46;;;;;;;5.17;4.43;;;8.40;99.90;;;;;;2075176;28;20260;-82
2023/09/26 02:46:46;;;;;;;5.30;4.80;;;8.40;99.90;;;;;;2075089;28;20230;-83
2023/09/26 02:47:47;;;;;;;4.67;4.20;;;8.40;99.90;;;;;;2073422;28;20249;-84
2023/09/26 02:48:48;;;;;;;4.77;4.23;;;8.40;99.90;;;;;;2073497;28;20284;-83
2023/09/26 02:49:48;;;;;;;4.90;4.10;;;8.30;99.90;;;;;;2074998;28;20247;-83
2023/09/26 02:50:49;;;;;;;4.87;4.30;;;8.40;99.90;;;;;;2074084;28;20238;-83
2023/09/26 02:51:49;;;;;;;4.30;3.90;;;8.40;99.90;;;;;;2073359;28;20265;-83
2023/09/26 02:52:50;;;;;;;4.93;4.07;;;8.30;99.90;;;;;;2073945;28;20229;-83
2023/09/26 02:53:51;;;;;;;4.27;3.70;;;8.30;99.90;;;;;;2082800;28;20288;-84
2023/09/26 02:54:51;;;;;;;4.73;4.30;;;8.30;99.90;;;;;;2082253;28;20237;-83
2023/09/26 02:55:52;;;;;;;4.00;3.60;;;8.30;99.90;;;;;;2084533;28;20228;-82
2023/09/26 02:56:53;;;;;;;5.57;3.93;;;8.30;99.90;;;;;;2077994;28;20229;-83
2023/09/26 02:57:53;;;;;;;3.93;3.53;;;8.30;99.90;;;;;;2076931;28;20853;-84
2023/09/26 02:58:54;;;;;;;4.53;3.27;;;8.30;99.90;;;;;;2075869;28;20230;-83
2023/09/26 02:59:54;;;;;;;3.87;3.30;;;8.20;99.90;;;;;;2075215;28;20257;-84
2023/09/26 03:00:55;;;;;;;4.63;3.53;;;8.20;99.90;;;;;;2067421;28;20287;-83
2023/09/26 03:01:56;;;;;;;4.53;3.17;;;8.20;99.90;;;;;;2063617;28;20233;-84
2023/09/26 03:02:57;;;;;;;4.05;3.30;;;8.10;99.90;;;;;;2075924;28;20301;-83
2023/09/26 03:03:57;;;;;;;5.83;3.57;;;8.10;99.90;;;;;;2076674;28;20226;-84
2023/09/26 03:04:58;;;;;;;3.73;3.40;;;8.10;99.90;;;;;;2076465;28;20621;-84
2023/09/26 03:05:59;;;;;;;4.53;3.70;;;8.00;99.90;;;;;;2068660;28;20254;-84
2023/09/26 03:06:59;;;;;;;7.00;4.30;;;8.10;99.90;;;;;;2075948;28;20296;-84
2023/09/26 03:08:00;;;;;;;5.40;4.23;;;8.10;99.90;;;;;;2068149;28;20281;-85
2023/09/26 03:09:00;;;;;;;5.43;4.37;;;8.10;99.90;;;;;;2077009;28;20226;-85
2023/09/26 03:10:01;;;;;;;5.70;5.10;;;8.10;99.90;;;;;;2077518;28;20260;-84
2023/09/26 03:11:02;;;;;;;5.30;4.20;;;8.00;99.90;;;;;;2076906;28;20730;-83
2023/09/26 03:12:06;;;;;;;6.95;4.38;;;8.10;99.90;;;;;;2067917;28;20769;-83
2023/09/26 03:13:06;;;;;;;4.93;4.45;;;8.10;99.90;;;;;;2067339;28;20198;-84
2023/09/26 03:14:07;;;;;;;6.13;4.60;;;8.10;99.90;;;;;;2067341;28;20197;-84
2023/09/26 03:15:08;;;;;;;5.47;4.07;;;8.10;99.90;;;;;;2075689;28;20203;-84
2023/09/26 03:16:13;;;;;;;5.00;4.50;;;8.20;99.90;;;;;;2077706;28;20241;-82
2023/09/26 03:17:13;;;;;;;5.57;4.75;;;8.20;99.90;;;;;;2079759;28;20419;-83
2023/09/26 03:18:14;;;;;;;5.70;5.20;;;8.10;99.90;;;;;;2081256;28;20189;-83
2023/09/26 03:19:17;;;;;;;6.13;5.40;;;8.20;99.90;;;;;;2071667;28;20191;-84
2023/09/26 03:20:18;;;;;;;7.57;5.70;;;8.30;99.90;;;;;;2078084;28;20221;-84
2023/09/26 03:21:18;;;;;;;4.20;3.80;;;8.10;99.90;;;;;;2085827;28;20185;-84
2023/09/26 03:22:19;;;;;;;4.20;3.80;;;8.20;99.90;;;;;;2077694;28;20182;-84
2023/09/26 03:23:21;;;;;;;4.30;3.70;;;8.20;99.90;;;;;;2078362;28;20217;-83
2023/09/26 03:24:21;;;;;;;5.07;3.97;;;8.20;99.90;;;;;;2076635;28;20193;-84
2023/09/26 03:25:22;;;;;;;4.23;3.53;;;8.10;99.90;;;;;;2077276;28;20248;-83
2023/09/26 03:26:22;;;;;;;4.10;3.37;;;8.20;99.90;;;;;;2077508;28;21409;-84
2023/09/26 03:27:24;;;;;;;4.63;3.87;;;8.10;99.90;;;;;;2077175;28;20275;-84
2023/09/26 03:28:24;;;;;;;4.40;4.00;;;8.10;99.90;;;;;;2076520;28;20225;-84
2023/09/26 03:29:25;;;;;;;4.97;3.67;;;8.20;99.90;;;;;;2075552;28;20229;-84
2023/09/26 03:30:26;;;;;;;4.20;3.60;;;8.10;99.90;;;;;;2067944;28;20230;-84
2023/09/26 03:31:26;;;;;;;4.83;4.30;;;8.10;99.90;;;;;;2067874;28;20238;-84
2023/09/26 03:32:28;;;;;;;6.30;4.80;;;8.10;99.90;;;;;;2068539;28;20234;-84
2023/09/26 03:33:28;;;;;;;4.78;4.10;;;8.00;99.90;;;;;;2076384;28;20239;-83
2023/09/26 03:34:29;;;;;;;5.80;4.27;;;8.00;99.90;;;;;;2076076;28;20229;-84
2023/09/26 03:35:30;;;;;;;4.53;4.03;;;8.10;99.90;;;;;;2077651;28;20237;-83
2023/09/26 03:36:32;;;;;;;4.57;4.18;;;8.00;99.90;;;;;;2076463;28;20316;-84
2023/09/26 03:37:33;;;;;;;5.90;4.30;;;8.00;99.90;;;;;;2076008;28;20233;-85
2023/09/26 03:38:34;;;;;;;6.40;4.60;;;8.10;99.90;;;;;;2075699;28;20298;-83
2023/09/26 03:39:34;;;;;;;7.10;4.63;;;7.90;99.90;;;;;;2075282;28;20229;-84
2023/09/26 03:40:35;;;;;;;5.23;4.63;;;7.90;99.90;;;;;;2067074;28;20233;-81
2023/09/26 03:41:35;;;;;;;4.53;4.13;;;8.00;99.90;;;;;;2075147;28;20237;-84
2023/09/26 03:42:36;;;;;;;4.97;4.30;;;8.00;99.90;;;;;;2075827;28;20240;-84
2023/09/26 03:43:36;;;;;;;8.07;4.70;;;7.90;99.90;;;;;;2075463;28;20261;-83
2023/09/26 03:44:37;;;;;;;6.40;4.93;;;7.90;99.90;;;;;;2076191;28;20240;-84
2023/09/26 03:45:38;;;;;;;4.90;4.40;;;7.90;99.90;;;;;;2076419;28;20326;-82
2023/09/26 03:46:38;;;;;;;8.07;3.80;;;7.90;99.90;;;;;;2075169;28;20271;-83
2023/09/26 03:47:39;;;;;;;5.13;4.40;;;7.90;99.90;;;;;;2075041;28;20241;-84
2023/09/26 03:48:39;;;;;;;4.37;3.97;;;7.90;99.90;;;;;;2075063;28;20265;-83
2023/09/26 03:49:40;;;;;;;6.13;5.03;;;7.90;99.90;;;;;;2073495;28;20300;-84
2023/09/26 03:50:41;;;;;;;6.23;4.87;;;7.90;99.90;;;;;;2066612;28;20304;-84
2023/09/26 03:51:42;;;;;;;7.95;5.32;;;7.90;99.90;;;;;;2067019;28;20273;-84
2023/09/26 03:52:43;;;;;;;5.90;5.03;;;7.90;99.90;;;;;;2066214;28;20229;-84
2023/09/26 03:53:43;;;;;;;5.57;4.77;;;8.00;99.90;;;;;;2073886;28;20271;-83
2023/09/26 03:54:44;;;;;;;5.57;4.73;;;8.00;99.90;;;;;;2074592;28;20240;-83
2023/09/26 03:55:53;;;;;;;6.57;5.73;;;7.90;99.90;;;;;;2066739;28;20273;-83
2023/09/26 03:56:54;;;;;;;6.43;4.70;;;7.90;99.90;;;;;;2074420;28;20293;-83
2023/09/26 03:57:54;;;;;;;4.83;4.30;;;7.80;99.90;;;;;;2076014;28;20968;-84
2023/09/26 03:58:57;;;;;;;6.30;5.33;;;7.90;99.90;;;;;;2075873;28;20299;-82
2023/09/26 03:59:58;;;;;;;6.00;5.43;;;7.90;99.90;;;;;;2076714;28;20259;-85
2023/09/26 04:01:12;;;;;;;5.30;4.80;;;7.80;99.90;;;;;;2074827;28;20741;-83
2023/09/26 04:02:13;;;;;;;6.63;6.03;;;7.90;99.90;;;;;;2073034;28;20237;-84
2023/09/26 04:03:13;;;;;;;9.60;8.13;;;7.90;99.90;;;;;;2074969;28;20197;-84
2023/09/26 04:04:14;;;;;;;9.33;8.20;;;7.90;99.90;;;;;;2077484;28;20217;-83
2023/09/26 04:05:15;;;;;;;9.27;8.07;;;8.00;99.90;;;;;;2081271;28;20205;-82
2023/09/26 04:06:16;;;;;;;9.47;7.87;;;7.90;99.90;;;;;;2081522;28;20205;-83
2023/09/26 04:07:16;;;;;;;7.78;6.68;;;8.00;99.90;;;;;;2079935;28;20261;-82
2023/09/26 04:08:17;;;;;;;7.00;6.23;;;8.00;99.90;;;;;;2069679;28;20194;-84
2023/09/26 04:09:17;;;;;;;6.53;5.87;;;8.00;99.90;;;;;;2066552;28;20201;-84
2023/09/26 04:10:18;;;;;;;6.57;5.87;;;8.00;99.90;;;;;;2075746;28;20227;-83
2023/09/26 04:11:19;;;;;;;7.30;5.80;;;8.00;99.90;;;;;;2075655;28;20185;-84
2023/09/26 04:12:19;;;;;;;6.27;5.43;;;8.00;99.90;;;;;;2072984;28;20320;-83
2023/09/26 04:13:20;;;;;;;6.03;4.90;;;8.00;99.90;;;;;;2071644;28;20220;-83
2023/09/26 04:14:20;;;;;;;6.17;5.27;;;8.10;99.90;;;;;;2070840;28;20620;-84
2023/09/26 04:15:21;;;;;;;6.10;4.83;;;8.00;99.90;;;;;;2070334;28;20260;-83
2023/09/26 04:16:22;;;;;;;5.77;4.77;;;8.00;99.90;;;;;;2072238;28;20312;-83
2023/09/26 04:17:22;;;;;;;6.07;5.07;;;8.00;99.90;;;;;;2073031;28;20186;-83
2023/09/26 04:18:23;;;;;;;5.37;4.33;;;8.00;99.90;;;;;;2064177;28;20257;-84
2023/09/26 04:19:23;;;;;;;5.30;4.80;;;8.00;99.90;;;;;;2072713;28;20233;-84
2023/09/26 04:20:24;;;;;;;6.40;5.27;;;8.00;99.90;;;;;;2072559;28;20225;-84
2023/09/26 04:21:25;;;;;;;6.17;5.13;;;7.90;99.90;;;;;;2072140;28;20234;-84
2023/09/26 04:22:27;;;;;;;8.73;6.30;;;7.90;99.90;;;;;;2074017;28;20232;-83
2023/09/26 04:23:27;;;;;;;8.05;7.25;;;8.00;99.90;;;;;;2072511;28;20238;-83
2023/09/26 04:24:28;;;;;;;6.93;6.03;;;8.00;99.90;;;;;;2064775;28;20591;-84
2023/09/26 04:25:30;;;;;;;5.77;5.13;;;8.00;99.90;;;;;;2066433;28;20320;-83
2023/09/26 04:26:30;;;;;;;7.22;5.13;;;8.00;99.90;;;;;;2067181;28;20245;-83
2023/09/26 04:27:31;;;;;;;6.00;5.40;;;8.00;99.90;;;;;;2073224;28;20279;-83
2023/09/26 04:28:32;;;;;;;5.80;5.23;;;7.90;99.90;;;;;;2073627;28;20271;-84
2023/09/26 04:29:35;;;;;;;5.00;4.60;;;7.80;99.90;;;;;;2072750;28;20293;-83
2023/09/26 04:30:37;;;;;;;6.15;4.85;;;7.80;99.90;;;;;;2065905;28;20229;-82
2023/09/26 04:31:38;;;;;;;4.72;4.30;;;7.80;99.90;;;;;;2066271;28;20258;-84
2023/09/26 04:32:39;;;;;;;5.20;4.70;;;7.80;99.90;;;;;;2074407;28;20237;-83
2023/09/26 04:33:39;;;;;;;6.57;5.87;;;7.80;99.90;;;;;;2071654;28;20233;-82
2023/09/26 04:34:40;;;;;;;5.00;4.60;;;7.80;99.90;;;;;;2063533;28;20304;-84
2023/09/26 04:35:40;;;;;;;6.03;4.63;;;7.80;99.90;;;;;;2064347;28;20226;-84
2023/09/26 04:36:41;;;;;;;6.33;5.73;;;7.80;99.90;;;;;;2064326;28;20309;-83
2023/09/26 04:37:42;;;;;;;12.13;7.70;;;7.60;99.90;;;;;;2073749;28;20318;-84
2023/09/26 04:38:43;;;;;;;9.77;6.60;;;7.60;99.90;;;;;;2074781;28;20275;-83
2023/09/26 04:39:43;;;;;;;7.13;6.43;;;7.60;99.90;;;;;;2073582;28;20656;-84
2023/09/26 04:40:44;;;;;;;6.70;4.93;;;7.70;99.90;;;;;;2072058;28;20240;-84
2023/09/26 04:41:45;;;;;;;7.20;6.50;;;7.70;99.90;;;;;;2072919;28;20363;-83
2023/09/26 04:42:49;;;;;;;7.75;6.80;;;7.70;99.90;;;;;;2073847;28;20237;-84
2023/09/26 04:43:50;;;;;;;7.18;6.47;;;7.70;99.90;;;;;;2074331;28;20717;-83
2023/09/26 04:44:51;;;;;;;8.03;7.23;;;7.70;99.90;;;;;;2074171;28;20236;-84
2023/09/26 04:45:52;;;;;;;8.32;6.05;;;7.80;99.90;;;;;;2073559;28;20232;-83
2023/09/26 04:46:53;;;;;;;9.07;6.47;;;7.80;99.90;;;;;;2065924;28;21055;-83
2023/09/26 04:47:56;;;;;;;7.27;6.50;;;7.80;99.90;;;;;;2066276;28;20229;-83
2023/09/26 04:48:57;;;;;;;7.50;6.70;;;7.80;99.90;;;;;;2064661;28;20218;-84
2023/09/26 04:49:57;;;;;;;8.40;6.83;;;7.80;99.90;;;;;;2074077;28;20233;-83
2023/09/26 04:50:58;;;;;;;9.73;6.00;;;7.90;99.90;;;;;;2082036;28;20284;-84
2023/09/26 04:51:58;;;;;;;8.27;6.77;;;7.90;99.90;;;;;;2073441;28;20324;-84
2023/09/26 04:52:59;;;;;;;7.10;6.40;;;7.90;99.90;;;;;;2072906;28;20226;-83
2023/09/26 04:54:01;;;;;;;9.30;6.17;;;7.90;99.90;;;;;;2072983;28;20764;-84
2023/09/26 04:55:02;;;;;;;7.68;6.90;;;7.90;99.90;;;;;;2074581;28;20317;-84
2023/09/26 04:56:04;;;;;;;8.98;7.00;;;8.00;99.90;;;;;;2072638;28;20623;-84
2023/09/26 04:57:07;;;;;;;6.72;6.00;;;7.90;99.90;;;;;;2063411;28;20256;-83
2023/09/26 04:58:08;;;;;;;6.68;5.72;;;7.80;99.90;;;;;;2070474;28;20268;-84
2023/09/26 04:59:08;;;;;;;5.50;5.00;;;7.80;99.90;;;;;;2071939;28;20186;-82
2023/09/26 05:00:10;;;;;;;6.30;5.27;;;7.70;99.90;;;;;;2072289;28;20201;-83
2023/09/26 05:01:15;;;;;;;6.88;5.07;;;7.80;99.90;;;;;;2072379;28;20197;-83
2023/09/26 05:02:16;;;;;;;5.32;4.80;;;7.80;99.90;;;;;;2071542;28;20655;-82
2023/09/26 05:03:16;;;;;;;6.30;5.70;;;7.80;99.90;;;;;;2071858;28;20186;-83
2023/09/26 05:04:17;;;;;;;7.40;5.57;;;7.80;99.90;;;;;;2063276;28;20187;-83
2023/09/26 05:05:19;;;;;;;9.50;6.70;;;7.80;99.90;;;;;;2071503;28;20186;-83
2023/09/26 05:06:19;;;;;;;8.10;6.40;;;7.80;99.90;;;;;;2073186;28;20216;-83
2023/09/26 05:07:20;;;;;;;8.03;6.93;;;7.80;99.90;;;;;;2065463;28;20633;-83
2023/09/26 05:08:20;;;;;;;6.67;5.77;;;7.90;99.90;;;;;;2072883;28;20760;-82
2023/09/26 05:09:23;;;;;;;7.37;5.77;;;7.90;99.90;;;;;;2073844;28;20195;-82
2023/09/26 05:10:23;;;;;;;8.38;6.05;;;7.80;99.90;;;;;;2073263;28;20789;-85
2023/09/26 05:11:26;;;;;;;7.33;6.30;;;7.80;99.90;;;;;;2074038;28;20270;-82
2023/09/26 05:12:26;;;;;;;6.47;5.88;;;7.80;99.90;;;;;;2073808;28;20233;-83
2023/09/26 05:13:27;;;;;;;5.83;5.23;;;7.80;99.90;;;;;;2080044;28;20221;-82
2023/09/26 05:14:27;;;;;;;5.33;4.83;;;7.70;99.90;;;;;;2081595;28;20255;-82
2023/09/26 05:15:28;;;;;;;6.00;4.90;;;7.80;99.90;;;;;;2080697;28;20320;-83
2023/09/26 05:16:29;;;;;;;6.83;4.83;;;7.80;99.90;;;;;;2077920;28;20237;-84
2023/09/26 05:17:29;;;;;;;6.10;4.80;;;7.80;99.90;;;;;;2078534;28;20236;-83
2023/09/26 05:18:30;;;;;;;6.53;5.67;;;7.80;99.90;;;;;;2077402;28;20292;-83
2023/09/26 05:19:30;;;;;;;6.30;5.30;;;7.80;99.90;;;;;;2061226;28;20313;-83
2023/09/26 05:20:31;;;;;;;6.33;5.67;;;7.80;99.90;;;;;;2061334;28;20234;-84
2023/09/26 05:21:32;;;;;;;7.20;6.50;;;7.80;99.90;;;;;;2069057;28;20293;-83
2023/09/26 05:22:32;;;;;;;7.83;6.40;;;7.80;99.90;;;;;;2077595;28;20229;-84